Copalis Beach, WA

7:25 AM PST on March 04, 2015 (GMT -0800)
KWACOPAL3 | Change Station
CLOSE
Current Station
Personal Weather Station
Location: Copalis Beach, WA
Elevation: 15 ft
Nearby Weather Stations

Elev 15 ft 47.11 °N, 124.18 °W | Updated 5 minutes ago

Clear
Clear
30.8 °F
Feels Like 31 °F
N
3.0
Wind Variable Wind from East
Gusts 6.0 mph

Today
High -- | Low -- °F
--% Chance of Precip.
Yesterday
High -- | Low -- °F
Precip. -- in
6:50 AM 6:06 PM
Waxing Gibbous, 99% visible
Pressure 30.29 in
Visibility 6.0 miles
Clouds Clear
Windchill 31 °F
Dew Point 29 °F
Humidity 91%
Rainfall 0.00 in
Snow Depth Not available.
UV 0.0 out of 12
Pollen 4.50 out of 12
Air Quality Not available.
Flu Activity Not available.
METAR KHQM 041453Z AUTO 07007KT 6SM BR CLR M01/M02 A3027 RMK AO2 SLP255 T10061017 53006

More Conditions Fewer Conditions

Pressure 30.29 in
Visibility 6.0 miles
Clouds Clear
Windchill 31 °F
Dew Point 29 °F
Humidity 91%
Rainfall 0.00 in
Snow Depth Not available.
UV 0.0 out of 12
Pollen 4.50 out of 12
Air Quality Not available.
Flu Activity Not available.
METAR KHQM 041453Z AUTO 07007KT 6SM BR CLR M01/M02 A3027 RMK AO2 SLP255 T10061017 53006

More Conditions Fewer Conditions

10-Day Weather Forecast

Almanac

Astronomy

Mar. 04, 2015 Rise Set
Actual Time
Civil Twilight
Nautical Twilight
Astronomical Twilight
Moon
Length of Visible Light
Length of Day
Tomorrow will be .
, % of the Moon is Illuminated

Today's Extremes

State Highs State Lows

Community

WunderPhotos

Upload Photos

1,802,489 photos uploaded!

WunderBlogs® & News

Nearby

Air Quality

  Air Quality AQ Index Pollutant
Not available.

Snow Depth

Station Depth Elevation

Earthquake Activity

City Distance Mag. Time & Date
Minimum magnitude displayed is 2.5.

Coastal Water Temperatures

Place Temperature

Nearby Weather Stations